sensor_id;sensor_type;location;lat;lon;timestamp;pressure;altitude;pressure_sealevel;temperature;humidity
21574;BME280;10948;48.706;9.258;2023-11-21T00:00:38;97211.91;;;8.96;100.00
21574;BME280;10948;48.706;9.258;2023-11-21T00:03:03;97209.31;;;8.96;100.00
21574;BME280;10948;48.706;9.258;2023-11-21T00:05:29;97211.91;;;8.96;100.00
21574;BME280;10948;48.706;9.258;2023-11-21T00:07:54;97223.50;;;8.91;100.00
21574;BME280;10948;48.706;9.258;2023-11-21T00:10:19;97212.50;;;8.87;100.00
21574;BME280;10948;48.706;9.258;2023-11-21T00:12:44;97211.38;;;8.91;100.00
21574;BME280;10948;48.706;9.258;2023-11-21T00:15:13;97208.91;;;8.76;100.00
21574;BME280;10948;48.706;9.258;2023-11-21T00:17:38;97207.88;;;8.78;100.00
21574;BME280;10948;48.706;9.258;2023-11-21T00:20:05;97206.31;;;8.76;100.00
21574;BME280;10948;48.706;9.258;2023-11-21T00:22:32;97196.66;;;8.78;100.00
21574;BME280;10948;48.706;9.258;2023-11-21T00:24:57;97195.66;;;8.80;100.00
21574;BME280;10948;48.706;9.258;2023-11-21T00:27:22;97200.25;;;8.89;100.00
21574;BME280;10948;48.706;9.258;2023-11-21T00:29:48;97198.59;;;8.88;100.00
21574;BME280;10948;48.706;9.258;2023-11-21T00:32:13;97190.25;;;8.97;100.00
21574;BME280;10948;48.706;9.258;2023-11-21T00:34:38;97198.22;;;8.94;100.00
21574;BME280;10948;48.706;9.258;2023-11-21T00:37:03;97193.47;;;9.01;100.00
21574;BME280;10948;48.706;9.258;2023-11-21T00:39:32;97187.66;;;8.97;100.00
21574;BME280;10948;48.706;9.258;2023-11-21T00:41:58;97192.22;;;8.94;100.00
21574;BME280;10948;48.706;9.258;2023-11-21T00:44:23;97191.66;;;8.89;100.00
21574;BME280;10948;48.706;9.258;2023-11-21T00:46:48;97196.34;;;8.96;100.00
21574;BME280;10948;48.706;9.258;2023-11-21T00:49:13;97189.78;;;8.91;100.00
21574;BME280;10948;48.706;9.258;2023-11-21T00:51:39;97187.00;;;8.94;100.00
21574;BME280;10948;48.706;9.258;2023-11-21T00:54:04;97188.84;;;8.92;100.00
21574;BME280;10948;48.706;9.258;2023-11-21T00:56:29;97190.78;;;9.02;100.00
21574;BME280;10948;48.706;9.258;2023-11-21T00:58:55;97184.25;;;8.83;100.00
21574;BME280;10948;48.706;9.258;2023-11-21T01:01:20;97181.81;;;8.94;100.00
21574;BME280;10948;48.706;9.258;2023-11-21T01:03:48;97177.03;;;8.88;100.00
21574;BME280;10948;48.706;9.258;2023-11-21T01:06:14;97190.72;;;8.90;100.00
21574;BME280;10948;48.706;9.258;2023-11-21T01:08:39;97190.06;;;8.86;100.00
21574;BME280;10948;48.706;9.258;2023-11-21T01:11:05;97194.34;;;8.87;100.00
21574;BME280;10948;48.706;9.258;2023-11-21T01:13:32;97182.84;;;8.91;100.00
21574;BME280;10948;48.706;9.258;2023-11-21T01:15:58;97180.97;;;8.93;100.00
21574;BME280;10948;48.706;9.258;2023-11-21T01:18:23;97195.06;;;8.89;100.00
21574;BME280;10948;48.706;9.258;2023-11-21T01:20:50;97188.03;;;8.91;100.00
21574;BME280;10948;48.706;9.258;2023-11-21T01:23:18;97188.03;;;8.91;100.00
21574;BME280;10948;48.706;9.258;2023-11-21T01:25:43;97192.63;;;9.00;100.00
21574;BME280;10948;48.706;9.258;2023-11-21T01:28:08;97195.78;;;9.05;100.00
21574;BME280;10948;48.706;9.258;2023-11-21T01:30:33;97185.84;;;9.12;100.00
21574;BME280;10948;48.706;9.258;2023-11-21T01:32:59;97181.16;;;9.04;100.00
21574;BME280;10948;48.706;9.258;2023-11-21T01:35:24;97186.97;;;9.08;100.00
21574;BME280;10948;48.706;9.258;2023-11-21T01:37:49;97186.34;;;9.04;100.00
21574;BME280;10948;48.706;9.258;2023-11-21T01:40:15;97184.00;;;9.14;100.00
21574;BME280;10948;48.706;9.258;2023-11-21T01:42:40;97172.97;;;9.10;100.00
21574;BME280;10948;48.706;9.258;2023-11-21T01:45:06;97169.31;;;9.13;100.00
21574;BME280;10948;48.706;9.258;2023-11-21T01:47:32;97169.63;;;9.08;100.00
21574;BME280;10948;48.706;9.258;2023-11-21T01:49:58;97169.44;;;9.11;100.00
21574;BME280;10948;48.706;9.258;2023-11-21T01:52:23;97172.97;;;9.10;100.00
21574;BME280;10948;48.706;9.258;2023-11-21T01:54:49;97169.44;;;9.11;100.00
21574;BME280;10948;48.706;9.258;2023-11-21T01:57:15;97178.91;;;9.12;100.00
21574;BME280;10948;48.706;9.258;2023-11-21T01:59:41;97179.19;;;9.08;100.00
21574;BME280;10948;48.706;9.258;2023-11-21T02:02:07;97177.41;;;9.08;100.00
21574;BME280;10948;48.706;9.258;2023-11-21T02:04:33;97180.38;;;9.02;100.00
21574;BME280;10948;48.706;9.258;2023-11-21T02:06:59;97186.84;;;9.09;100.00
21574;BME280;10948;48.706;9.258;2023-11-21T02:09:25;97187.16;;;9.05;100.00
21574;BME280;10948;48.706;9.258;2023-11-21T02:11:51;97184.13;;;8.98;100.00
21574;BME280;10948;48.706;9.258;2023-11-21T02:14:16;97180.31;;;9.04;100.00
21574;BME280;10948;48.706;9.258;2023-11-21T02:16:43;97183.53;;;9.07;100.00
21574;BME280;10948;48.706;9.258;2023-11-21T02:19:12;97182.16;;;9.02;100.00
21574;BME280;10948;48.706;9.258;2023-11-21T02:21:42;97182.06;;;9.03;100.00
21574;BME280;10948;48.706;9.258;2023-11-21T02:24:08;97170.75;;;9.04;100.00
21574;BME280;10948;48.706;9.258;2023-11-21T02:26:35;97171.09;;;9.12;100.00
21574;BME280;10948;48.706;9.258;2023-11-21T02:29:00;97168.56;;;8.98;100.00
21574;BME280;10948;48.706;9.258;2023-11-21T02:31:25;97173.84;;;8.97;100.00
21574;BME280;10948;48.706;9.258;2023-11-21T02:33:52;97162.97;;;9.04;100.00
21574;BME280;10948;48.706;9.258;2023-11-21T02:36:17;97171.03;;;9.00;100.00
21574;BME280;10948;48.706;9.258;2023-11-21T02:38:43;97168.72;;;8.95;100.00
21574;BME280;10948;48.706;9.258;2023-11-21T02:41:08;97172.25;;;8.94;100.00
21574;BME280;10948;48.706;9.258;2023-11-21T02:43:33;97170.59;;;8.93;100.00
21574;BME280;10948;48.706;9.258;2023-11-21T02:45:59;97169.13;;;8.89;100.00
21574;BME280;10948;48.706;9.258;2023-11-21T02:48:24;97168.59;;;8.84;100.00
21574;BME280;10948;48.706;9.258;2023-11-21T02:50:50;97168.84;;;8.80;100.00
21574;BME280;10948;48.706;9.258;2023-11-21T02:53:16;97164.25;;;8.71;100.00
21574;BME280;10948;48.706;9.258;2023-11-21T02:55:41;97157.84;;;8.76;100.00
21574;BME280;10948;48.706;9.258;2023-11-21T02:58:06;97158.44;;;8.67;100.00
21574;BME280;10948;48.706;9.258;2023-11-21T03:00:31;97161.75;;;8.69;100.00
21574;BME280;10948;48.706;9.258;2023-11-21T03:02:57;97164.16;;;8.72;100.00
21574;BME280;10948;48.706;9.258;2023-11-21T03:05:22;97162.88;;;8.65;100.00
21574;BME280;10948;48.706;9.258;2023-11-21T03:07:47;97170.66;;;8.65;100.00
21574;BME280;10948;48.706;9.258;2023-11-21T03:10:13;97161.47;;;8.74;100.00
21574;BME280;10948;48.706;9.258;2023-11-21T03:12:38;97166.56;;;8.75;100.00
21574;BME280;10948;48.706;9.258;2023-11-21T03:15:07;97158.63;;;8.64;100.00
21574;BME280;10948;48.706;9.258;2023-11-21T03:17:32;97161.22;;;8.64;100.00
21574;BME280;10948;48.706;9.258;2023-11-21T03:19:59;97165.34;;;8.81;100.00
21574;BME280;10948;48.706;9.258;2023-11-21T03:22:24;97161.56;;;8.72;100.00
21574;BME280;10948;48.706;9.258;2023-11-21T03:24:50;97163.03;;;8.76;100.00
21574;BME280;10948;48.706;9.258;2023-11-21T03:27:15;97162.88;;;8.65;100.00
21574;BME280;10948;48.706;9.258;2023-11-21T03:29:40;97166.84;;;8.71;100.00
21574;BME280;10948;48.706;9.258;2023-11-21T03:32:05;97166.38;;;8.78;100.00
21574;BME280;10948;48.706;9.258;2023-11-21T03:34:32;97171.31;;;8.69;100.00
21574;BME280;10948;48.706;9.258;2023-11-21T03:36:57;97168.72;;;8.69;100.00
21574;BME280;10948;48.706;9.258;2023-11-21T03:39:23;97178.19;;;8.56;100.00
21574;BME280;10948;48.706;9.258;2023-11-21T03:41:50;97172.91;;;8.57;100.00
21574;BME280;10948;48.706;9.258;2023-11-21T03:44:16;97167.88;;;8.54;100.00
21574;BME280;10948;48.706;9.258;2023-11-21T03:46:42;97171.59;;;8.50;100.00
21574;BME280;10948;48.706;9.258;2023-11-21T03:49:08;97166.97;;;8.55;100.00
21574;BME280;10948;48.706;9.258;2023-11-21T03:51:33;97178.91;;;8.58;100.00
21574;BME280;10948;48.706;9.258;2023-11-21T03:53:59;97177.03;;;8.60;100.00
21574;BME280;10948;48.706;9.258;2023-11-21T03:56:24;97174.72;;;8.55;100.00
21574;BME280;10948;48.706;9.258;2023-11-21T03:58:49;97173.00;;;8.56;100.00
21574;BME280;10948;48.706;9.258;2023-11-21T04:01:21;97171.69;;;8.63;100.00
21574;BME280;10948;48.706;9.258;2023-11-21T04:03:47;97178.09;;;8.57;100.00
21574;BME280;10948;48.706;9.258;2023-11-21T04:06:12;97173.63;;;8.59;100.00
21574;BME280;10948;48.706;9.258;2023-11-21T04:08:37;97174.28;;;8.63;100.00
21574;BME280;10948;48.706;9.258;2023-11-21T04:11:02;97180.84;;;8.68;100.00
21574;BME280;10948;48.706;9.258;2023-11-21T04:13:28;97178.81;;;8.59;100.00
21574;BME280;10948;48.706;9.258;2023-11-21T04:15:53;97181.41;;;8.59;100.00
21574;BME280;10948;48.706;9.258;2023-11-21T04:18:18;97184.34;;;8.67;100.00
21574;BME280;10948;48.706;9.258;2023-11-21T04:20:44;97184.72;;;8.61;100.00
21574;BME280;10948;48.706;9.258;2023-11-21T04:23:09;97187.25;;;8.63;100.00
21574;BME280;10948;48.706;9.258;2023-11-21T04:25:35;97174.19;;;8.64;100.00
21574;BME280;10948;48.706;9.258;2023-11-21T04:28:00;97177.59;;;8.65;100.00
21574;BME280;10948;48.706;9.258;2023-11-21T04:30:25;97179.38;;;8.64;100.00
21574;BME280;10948;48.706;9.258;2023-11-21T04:32:50;97181.97;;;8.64;100.00
21574;BME280;10948;48.706;9.258;2023-11-21T04:35:17;97183.91;;;8.61;100.00
21574;BME280;10948;48.706;9.258;2023-11-21T04:37:42;97191.78;;;8.59;100.00
21574;BME280;10948;48.706;9.258;2023-11-21T04:40:07;97191.78;;;8.59;100.00
21574;BME280;10948;48.706;9.258;2023-11-21T04:42:34;97194.38;;;8.59;100.00
21574;BME280;10948;48.706;9.258;2023-11-21T04:44:59;97198.84;;;8.57;100.00
21574;BME280;10948;48.706;9.258;2023-11-21T04:47:26;97192.72;;;8.58;100.00
21574;BME280;10948;48.706;9.258;2023-11-21T04:49:51;97193.25;;;8.63;100.00
21574;BME280;10948;48.706;9.258;2023-11-21T04:52:17;97193.53;;;8.59;100.00
21574;BME280;10948;48.706;9.258;2023-11-21T04:54:42;97190.13;;;8.58;100.00
21574;BME280;10948;48.706;9.258;2023-11-21T04:57:07;97185.88;;;8.57;100.00
21574;BME280;10948;48.706;9.258;2023-11-21T04:59:34;97186.59;;;8.59;100.00
21574;BME280;10948;48.706;9.258;2023-11-21T05:01:59;97195.47;;;8.55;100.00
21574;BME280;10948;48.706;9.258;2023-11-21T05:04:25;97200.13;;;8.64;100.00
21574;BME280;10948;48.706;9.258;2023-11-21T05:06:50;97202.06;;;8.61;100.00
21574;BME280;10948;48.706;9.258;2023-11-21T05:09:16;97196.47;;;8.67;100.00
21574;BME280;10948;48.706;9.258;2023-11-21T05:11:41;97200.00;;;8.66;100.00
21574;BME280;10948;48.706;9.258;2023-11-21T05:14:06;97197.91;;;8.58;100.00
21574;BME280;10948;48.706;9.258;2023-11-21T05:16:32;97207.34;;;8.59;100.00
21574;BME280;10948;48.706;9.258;2023-11-21T05:18:58;97205.47;;;8.61;100.00
21574;BME280;10948;48.706;9.258;2023-11-21T05:21:26;97201.66;;;8.67;100.00
21574;BME280;10948;48.706;9.258;2023-11-21T05:23:51;97204.66;;;8.61;100.00
21574;BME280;10948;48.706;9.258;2023-11-21T05:26:16;97208.81;;;8.63;100.00
21574;BME280;10948;48.706;9.258;2023-11-21T05:28:41;97222.63;;;8.64;100.00
21574;BME280;10948;48.706;9.258;2023-11-21T05:31:07;97219.09;;;8.65;100.00
21574;BME280;10948;48.706;9.258;2023-11-21T05:33:32;97225.22;;;8.64;100.00
21574;BME280;10948;48.706;9.258;2023-11-21T05:35:58;97224.19;;;8.66;100.00
21574;BME280;10948;48.706;9.258;2023-11-21T05:38:23;97227.34;;;8.71;100.00
21574;BME280;10948;48.706;9.258;2023-11-21T05:40:49;97226.22;;;8.61;100.00
21574;BME280;10948;48.706;9.258;2023-11-21T05:43:14;97232.25;;;8.62;100.00
21574;BME280;10948;48.706;9.258;2023-11-21T05:45:40;97232.25;;;8.62;100.00
21574;BME280;10948;48.706;9.258;2023-11-21T05:48:05;97227.72;;;8.65;100.00
21574;BME280;10948;48.706;9.258;2023-11-21T05:50:31;97225.94;;;8.66;100.00
21574;BME280;10948;48.706;9.258;2023-11-21T05:52:57;97226.22;;;8.61;100.00
21574;BME280;10948;48.706;9.258;2023-11-21T05:55:25;97224.75;;;8.57;100.00
21574;BME280;10948;48.706;9.258;2023-11-21T05:57:50;97225.66;;;8.56;100.00
21574;BME280;10948;48.706;9.258;2023-11-21T06:00:16;97228.25;;;8.70;100.00
21574;BME280;10948;48.706;9.258;2023-11-21T06:02:50;97232.91;;;8.65;100.00
21574;BME280;10948;48.706;9.258;2023-11-21T06:05:17;97228.47;;;8.53;100.00
21574;BME280;10948;48.706;9.258;2023-11-21T06:07:43;97241.78;;;8.47;100.00
21574;BME280;10948;48.706;9.258;2023-11-21T06:10:10;97239.41;;;8.44;100.00
21574;BME280;10948;48.706;9.258;2023-11-21T06:12:36;97235.03;;;8.45;100.00
21574;BME280;10948;48.706;9.258;2023-11-21T06:15:04;97247.53;;;8.52;100.00
21574;BME280;10948;48.706;9.258;2023-11-21T06:17:33;97253.38;;;8.56;100.00
21574;BME280;10948;48.706;9.258;2023-11-21T06:20:01;97252.25;;;8.46;100.00
21574;BME280;10948;48.706;9.258;2023-11-21T06:22:28;97253.25;;;8.43;100.00
21574;BME280;10948;48.706;9.258;2023-11-21T06:24:55;97250.31;;;8.49;100.00
21574;BME280;10948;48.706;9.258;2023-11-21T06:27:20;97259.94;;;8.47;100.00
21574;BME280;10948;48.706;9.258;2023-11-21T06:29:46;97260.13;;;8.44;100.00
21574;BME280;10948;48.706;9.258;2023-11-21T06:32:12;97260.78;;;8.48;100.00
21574;BME280;10948;48.706;9.258;2023-11-21T06:34:37;97272.63;;;8.52;100.00
21574;BME280;10948;48.706;9.258;2023-11-21T06:37:02;97267.16;;;8.42;100.00
21574;BME280;10948;48.706;9.258;2023-11-21T06:39:27;97271.31;;;8.45;100.00
21574;BME280;10948;48.706;9.258;2023-11-21T06:41:53;97274.00;;;8.43;100.00
21574;BME280;10948;48.706;9.258;2023-11-21T06:44:18;97269.56;;;8.31;100.00
21574;BME280;10948;48.706;9.258;2023-11-21T06:46:44;97283.25;;;8.33;100.00
21574;BME280;10948;48.706;9.258;2023-11-21T06:49:10;97278.06;;;8.33;100.00
21574;BME280;10948;48.706;9.258;2023-11-21T06:51:36;97282.53;;;8.45;100.00
21574;BME280;10948;48.706;9.258;2023-11-21T06:54:01;97288.53;;;8.46;100.00
21574;BME280;10948;48.706;9.258;2023-11-21T06:56:26;97279.03;;;8.46;100.00
21574;BME280;10948;48.706;9.258;2023-11-21T06:58:52;97286.59;;;8.49;100.00
21574;BME280;10948;48.706;9.258;2023-11-21T07:01:19;97286.34;;;8.54;100.00
21574;BME280;10948;48.706;9.258;2023-11-21T07:03:44;97297.75;;;8.51;100.00
21574;BME280;10948;48.706;9.258;2023-11-21T07:06:10;97301.16;;;8.66;100.00
21574;BME280;10948;48.706;9.258;2023-11-21T07:08:36;97300.34;;;8.65;100.00
21574;BME280;10948;48.706;9.258;2023-11-21T07:11:02;97306.69;;;8.60;100.00
21574;BME280;10948;48.706;9.258;2023-11-21T07:13:28;97305.53;;;8.65;100.00
21574;BME280;10948;48.706;9.258;2023-11-21T07:15:53;97312.47;;;8.79;100.00
21574;BME280;10948;48.706;9.258;2023-11-21T07:18:19;97312.19;;;8.83;100.00
21574;BME280;10948;48.706;9.258;2023-11-21T07:20:44;97316.47;;;8.84;100.00
21574;BME280;10948;48.706;9.258;2023-11-21T07:23:10;97309.78;;;8.94;100.00
21574;BME280;10948;48.706;9.258;2023-11-21T07:25:35;97312.00;;;9.00;100.00
21574;BME280;10948;48.706;9.258;2023-11-21T07:28:01;97318.03;;;9.01;100.00
21574;BME280;10948;48.706;9.258;2023-11-21T07:30:26;97316.47;;;9.12;100.00
21574;BME280;10948;48.706;9.258;2023-11-21T07:32:52;97314.78;;;9.11;100.00
21574;BME280;10948;48.706;9.258;2023-11-21T07:35:17;97323.97;;;9.17;100.00
21574;BME280;10948;48.706;9.258;2023-11-21T07:37:43;97321.06;;;9.21;100.00
21574;BME280;10948;48.706;9.258;2023-11-21T07:40:08;97326.47;;;9.18;100.00
21574;BME280;10948;48.706;9.258;2023-11-21T07:42:34;97334.06;;;9.21;100.00
21574;BME280;10948;48.706;9.258;2023-11-21T07:44:59;97334.59;;;9.26;100.00
21574;BME280;10948;48.706;9.258;2023-11-21T07:47:25;97331.13;;;9.40;100.00
21574;BME280;10948;48.706;9.258;2023-11-21T07:49:52;97338.50;;;9.33;100.00
21574;BME280;10948;48.706;9.258;2023-11-21T07:52:18;97342.59;;;9.37;100.00
21574;BME280;10948;48.706;9.258;2023-11-21T07:54:44;97344.41;;;9.35;100.00
21574;BME280;10948;48.706;9.258;2023-11-21T07:57:09;97348.31;;;9.28;100.00
21574;BME280;10948;48.706;9.258;2023-11-21T07:59:38;97351.00;;;9.27;100.00
21574;BME280;10948;48.706;9.258;2023-11-21T08:02:04;97348.03;;;9.33;100.00
21574;BME280;10948;48.706;9.258;2023-11-21T08:04:29;97348.16;;;9.31;100.00
21574;BME280;10948;48.706;9.258;2023-11-21T08:06:57;97348.31;;;9.28;100.00
21574;BME280;10948;48.706;9.258;2023-11-21T08:09:22;97348.78;;;9.35;100.00
21574;BME280;10948;48.706;9.258;2023-11-21T08:11:49;97354.00;;;9.35;100.00
21574;BME280;10948;48.706;9.258;2023-11-21T08:14:15;97352.97;;;9.37;100.00
21574;BME280;10948;48.706;9.258;2023-11-21T08:16:40;97360.47;;;9.42;100.00
21574;BME280;10948;48.706;9.258;2023-11-21T08:19:06;97357.56;;;9.46;100.00
21574;BME280;10948;48.706;9.258;2023-11-21T08:21:31;97361.66;;;9.36;100.00
21574;BME280;10948;48.706;9.258;2023-11-21T08:23:56;97359.63;;;9.41;100.00
21574;BME280;10948;48.706;9.258;2023-11-21T08:26:22;97362.19;;;9.55;100.00
21574;BME280;10948;48.706;9.258;2023-11-21T08:28:48;97358.88;;;9.53;100.00
21574;BME280;10948;48.706;9.258;2023-11-21T08:31:14;97361.38;;;9.55;100.00
21574;BME280;10948;48.706;9.258;2023-11-21T08:33:39;97368.66;;;9.62;100.00
21574;BME280;10948;48.706;9.258;2023-11-21T08:36:08;97370.16;;;9.66;100.00
21574;BME280;10948;48.706;9.258;2023-11-21T08:38:33;97365.22;;;9.76;100.00
21574;BME280;10948;48.706;9.258;2023-11-21T08:41:04;97375.72;;;9.60;100.00
21574;BME280;10948;48.706;9.258;2023-11-21T08:43:29;97374.44;;;9.53;100.00
21574;BME280;10948;48.706;9.258;2023-11-21T08:45:55;97373.44;;;9.56;100.00
21574;BME280;10948;48.706;9.258;2023-11-21T08:48:21;97373.72;;;9.51;100.00
21574;BME280;10948;48.706;9.258;2023-11-21T08:50:47;97369.06;;;9.56;100.00
21574;BME280;10948;48.706;9.258;2023-11-21T08:53:12;97373.44;;;9.56;100.00
21574;BME280;10948;48.706;9.258;2023-11-21T08:55:38;97374.16;;;9.58;100.00
21574;BME280;10948;48.706;9.258;2023-11-21T08:58:03;97373.59;;;9.53;100.00
21574;BME280;10948;48.706;9.258;2023-11-21T09:00:30;97378.72;;;9.54;100.00
21574;BME280;10948;48.706;9.258;2023-11-21T09:02:55;97376.66;;;9.59;100.00
21574;BME280;10948;48.706;9.258;2023-11-21T09:05:20;97383.88;;;9.68;100.00
21574;BME280;10948;48.706;9.258;2023-11-21T09:07:46;97391.63;;;9.82;100.00
21574;BME280;10948;48.706;9.258;2023-11-21T09:10:13;97390.13;;;10.06;100.00
21574;BME280;10948;48.706;9.258;2023-11-21T09:12:39;97388.50;;;10.44;100.00
21574;BME280;10948;48.706;9.258;2023-11-21T09:15:05;97389.38;;;10.82;100.00
21574;BME280;10948;48.706;9.258;2023-11-21T09:17:31;97391.19;;;11.80;100.00
21574;BME280;10948;48.706;9.258;2023-11-21T09:19:57;97397.25;;;12.85;100.00
21574;BME280;10948;48.706;9.258;2023-11-21T09:22:22;97397.63;;;12.23;100.00
21574;BME280;10948;48.706;9.258;2023-11-21T09:24:50;97402.94;;;11.98;100.00
21574;BME280;10948;48.706;9.258;2023-11-21T09:27:15;97395.59;;;12.84;100.00
21574;BME280;10948;48.706;9.258;2023-11-21T09:29:42;97405.06;;;12.98;100.00
21574;BME280;10948;48.706;9.258;2023-11-21T09:32:07;97395.94;;;13.14;100.00
21574;BME280;10948;48.706;9.258;2023-11-21T09:34:33;97398.69;;;12.55;100.00
21574;BME280;10948;48.706;9.258;2023-11-21T09:37:01;97398.44;;;12.23;100.00
21574;BME280;10948;48.706;9.258;2023-11-21T09:39:30;97403.41;;;12.73;100.00
21574;BME280;10948;48.706;9.258;2023-11-21T09:41:57;97406.13;;;12.72;100.00
21574;BME280;10948;48.706;9.258;2023-11-21T09:47:23;97415.56;;;13.75;100.00
21574;BME280;10948;48.706;9.258;2023-11-21T09:49:49;97415.09;;;13.37;100.00
21574;BME280;10948;48.706;9.258;2023-11-21T09:52:32;97405.09;;;13.09;100.00
21574;BME280;10948;48.706;9.258;2023-11-21T09:55:03;97416.94;;;12.44;100.00
21574;BME280;10948;48.706;9.258;2023-11-21T09:57:30;97423.38;;;12.04;100.00
21574;BME280;10948;48.706;9.258;2023-11-21T09:59:56;97417.41;;;11.66;100.00
21574;BME280;10948;48.706;9.258;2023-11-21T10:02:26;97429.91;;;11.11;100.00
21574;BME280;10948;48.706;9.258;2023-11-21T10:04:53;97424.72;;;11.11;100.00
21574;BME280;10948;48.706;9.258;2023-11-21T10:07:20;97412.72;;;11.21;100.00
21574;BME280;10948;48.706;9.258;2023-11-21T10:09:45;97415.13;;;11.24;100.00
21574;BME280;10948;48.706;9.258;2023-11-21T10:12:11;97411.78;;;11.09;100.00
21574;BME280;10948;48.706;9.258;2023-11-21T10:14:40;97421.16;;;11.12;100.00
21574;BME280;10948;48.706;9.258;2023-11-21T10:17:06;97423.25;;;11.19;100.00
21574;BME280;10948;48.706;9.258;2023-11-21T10:19:33;97421.78;;;11.15;100.00
21574;BME280;10948;48.706;9.258;2023-11-21T10:22:00;97420.09;;;11.02;100.00
21574;BME280;10948;48.706;9.258;2023-11-21T10:24:26;97415.31;;;10.96;100.00
21574;BME280;10948;48.706;9.258;2023-11-21T10:26:52;97415.03;;;11.00;100.00
21574;BME280;10948;48.706;9.258;2023-11-21T10:29:19;97420.72;;;10.93;100.00
21574;BME280;10948;48.706;9.258;2023-11-21T10:31:48;97425.53;;;10.99;100.00
21574;BME280;10948;48.706;9.258;2023-11-21T10:34:18;97430.84;;;10.97;100.00
21574;BME280;10948;48.706;9.258;2023-11-21T10:36:44;97430.13;;;10.95;100.00
21574;BME280;10948;48.706;9.258;2023-11-21T10:39:13;97427.19;;;11.00;100.00
21574;BME280;10948;48.706;9.258;2023-11-21T10:41:43;97426.56;;;10.96;100.00
21574;BME280;10948;48.706;9.258;2023-11-21T10:44:08;97427.28;;;10.86;100.00
21574;BME280;10948;48.706;9.258;2023-11-21T10:46:34;97430.44;;;10.91;100.00
21574;BME280;10948;48.706;9.258;2023-11-21T10:49:00;97435.31;;;10.83;100.00
21574;BME280;10948;48.706;9.258;2023-11-21T10:51:27;97432.41;;;11.00;100.00
21574;BME280;10948;48.706;9.258;2023-11-21T10:53:53;97431.16;;;11.05;100.00
21574;BME280;10948;48.706;9.258;2023-11-21T10:56:19;97434.81;;;11.03;100.00
21574;BME280;10948;48.706;9.258;2023-11-21T10:58:51;97435.09;;;10.98;100.00
21574;BME280;10948;48.706;9.258;2023-11-21T11:01:18;97433.75;;;10.93;100.00
21574;BME280;10948;48.706;9.258;2023-11-21T11:03:47;97433.22;;;10.88;100.00
21574;BME280;10948;48.706;9.258;2023-11-21T11:06:13;97433.34;;;10.99;100.00
21574;BME280;10948;48.706;9.258;2023-11-21T11:08:40;97440.31;;;10.86;100.00
21574;BME280;10948;48.706;9.258;2023-11-21T11:11:05;97431.66;;;10.85;100.00
21574;BME280;10948;48.706;9.258;2023-11-21T11:13:31;97438.09;;;10.80;100.00
21574;BME280;10948;48.706;9.258;2023-11-21T11:15:58;97440.31;;;10.86;100.00
21574;BME280;10948;48.706;9.258;2023-11-21T11:18:30;97439.66;;;10.82;100.00
21574;BME280;10948;48.706;9.258;2023-11-21T11:21:07;97448.19;;;10.72;100.00
21574;BME280;10948;48.706;9.258;2023-11-21T11:27:38;97437.38;;;10.78;100.00
21574;BME280;10948;48.706;9.258;2023-11-21T11:29:35;97438.00;;;10.82;100.00
21574;BME280;10948;48.706;9.258;2023-11-21T11:32:08;97434.97;;;10.75;100.00
21574;BME280;10948;48.706;9.258;2023-11-21T11:34:49;97439.66;;;10.70;100.00
21574;BME280;10948;48.706;9.258;2023-11-21T11:37:18;97433.81;;;10.67;100.00
21574;BME280;10948;48.706;9.258;2023-11-21T11:39:44;97443.59;;;10.63;100.00
21574;BME280;10948;48.706;9.258;2023-11-21T11:42:13;97443.38;;;10.66;100.00
21574;BME280;10948;48.706;9.258;2023-11-21T11:49:57;97444.56;;;10.48;100.00
21574;BME280;10948;48.706;9.258;2023-11-21T11:55:05;97446.47;;;10.59;100.00
21574;BME280;10948;48.706;9.258;2023-11-21T11:57:31;97444.00;;;10.70;100.00
21574;BME280;10948;48.706;9.258;2023-11-21T12:00:16;97445.91;;;10.80;100.00
21574;BME280;10948;48.706;9.258;2023-11-21T12:02:50;97444.25;;;10.91;100.00
21574;BME280;10948;48.706;9.258;2023-11-21T12:05:17;97446.63;;;10.82;100.00
21574;BME280;10948;48.706;9.258;2023-11-21T12:10:17;97447.78;;;10.78;100.00
21574;BME280;10948;48.706;9.258;2023-11-21T12:12:45;97444.88;;;10.70;100.00
21574;BME280;10948;48.706;9.258;2023-11-21T12:15:11;97444.66;;;10.73;100.00
21574;BME280;10948;48.706;9.258;2023-11-21T12:17:37;97458.13;;;10.53;100.00
21574;BME280;10948;48.706;9.258;2023-11-21T12:20:03;97453.78;;;10.66;100.00
21574;BME280;10948;48.706;9.258;2023-11-21T12:22:29;97449.00;;;10.73;100.00
21574;BME280;10948;48.706;9.258;2023-11-21T12:24:56;97452.22;;;10.64;100.00
21574;BME280;10948;48.706;9.258;2023-11-21T12:27:22;97450.63;;;10.49;100.00
21574;BME280;10948;48.706;9.258;2023-11-21T12:29:47;97455.44;;;10.55;100.00
21574;BME280;10948;48.706;9.258;2023-11-21T12:32:13;97452.91;;;10.53;100.00
21574;BME280;10948;48.706;9.258;2023-11-21T12:34:40;97465.38;;;10.48;100.00
21574;BME280;10948;48.706;9.258;2023-11-21T12:37:05;97459.06;;;10.52;100.00
21574;BME280;10948;48.706;9.258;2023-11-21T12:39:31;97461.66;;;10.52;100.00
21574;BME280;10948;48.706;9.258;2023-11-21T12:41:56;97463.78;;;10.33;100.00
21574;BME280;10948;48.706;9.258;2023-11-21T12:44:21;97462.06;;;10.46;100.00
21574;BME280;10948;48.706;9.258;2023-11-21T12:46:49;97466.25;;;10.61;100.00
21574;BME280;10948;48.706;9.258;2023-11-21T12:49:15;97471.41;;;10.75;100.00
21574;BME280;10948;48.706;9.258;2023-11-21T12:51:44;97470.28;;;10.79;100.00
21574;BME280;10948;48.706;9.258;2023-11-21T12:54:10;97468.63;;;10.90;100.00
21574;BME280;10948;48.706;9.258;2023-11-21T12:56:38;97468.22;;;11.09;100.00
21574;BME280;10948;48.706;9.258;2023-11-21T12:59:04;97470.75;;;11.10;100.00
21574;BME280;10948;48.706;9.258;2023-11-21T13:01:29;97468.84;;;11.12;100.00
21574;BME280;10948;48.706;9.258;2023-11-21T13:03:56;97460.81;;;10.90;100.00
21574;BME280;10948;48.706;9.258;2023-11-21T13:06:22;97462.16;;;10.96;100.00
21574;BME280;10948;48.706;9.258;2023-11-21T13:08:49;97468.22;;;10.84;100.00